Time;durP1;ratioP1;P1;durP2;ratioP2;P2;SDS_P1;SDS_P2;PMS_P1;PMS_P2;Temp;Humidity;BMP_temperature;BMP_pressure;BME280_temperature;BME280_humidity;BME280_pressure;Samples;Min_cycle;Max_cycle;Signal;HPM_P1;HPM_P2
2023/04/23 00:00:43;;;;;;;25.57;16.33;;;12.80;99.90;;;;;;4990444;28;20458;-76
2023/04/23 00:03:15;;;;;;;30.13;14.70;;;12.80;99.90;;;;;;4986171;28;20563;-77
2023/04/23 00:05:49;;;;;;;32.60;14.80;;;12.70;99.90;;;;;;4999906;28;20478;-75
2023/04/23 00:08:25;;;;;;;29.73;16.30;;;12.60;99.90;;;;;;4963175;28;20534;-75
2023/04/23 00:10:56;;;;;;;23.63;14.17;;;12.70;99.90;;;;;;4997954;28;20508;-77
2023/04/23 00:13:27;;;;;;;28.87;12.07;;;12.80;99.90;;;;;;4982806;28;20521;-75
2023/04/23 00:15:55;;;;;;;25.23;14.00;;;12.90;99.90;;;;;;4988061;28;20972;-75
2023/04/23 00:18:22;;;;;;;30.47;16.77;;;12.80;99.90;;;;;;4950274;28;20494;-76
2023/04/23 00:20:50;;;;;;;22.87;11.10;;;12.80;99.90;;;;;;4986017;28;20482;-75
2023/04/23 00:23:31;;;;;;;25.53;13.40;;;12.80;99.90;;;;;;5191007;22;20586;-76
2023/04/23 00:25:58;;;;;;;25.03;12.20;;;12.80;99.90;;;;;;5007881;28;20456;-75
2023/04/23 00:31:18;;;;;;;26.93;14.00;;;12.80;99.90;;;;;;4970426;28;20442;-76
2023/04/23 00:33:44;;;;;;;26.33;14.27;;;12.80;99.90;;;;;;4995501;28;20472;-76
2023/04/23 00:36:24;;;;;;;27.77;13.97;;;12.70;99.90;;;;;;4986528;28;20565;-75
2023/04/23 00:39:00;;;;;;;22.77;12.93;;;12.80;99.90;;;;;;4981804;28;20468;-75
2023/04/23 00:42:11;;;;;;;33.10;18.17;;;12.80;99.90;;;;;;4984745;28;20572;-76
2023/04/23 00:45:18;;;;;;;23.17;13.53;;;12.80;99.90;;;;;;4970538;28;20425;-76
2023/04/23 00:54:40;;;;;;;27.93;15.13;;;12.80;99.90;;;;;;4957386;28;20877;-75
2023/04/23 00:57:32;;;;;;;26.47;14.63;;;12.90;99.90;;;;;;4982416;28;20546;-75
2023/04/23 00:59:59;;;;;;;27.00;15.70;;;12.80;99.90;;;;;;4983635;28;20468;-75
2023/04/23 01:02:29;;;;;;;28.13;13.30;;;12.70;99.90;;;;;;4980917;28;20532;-75
2023/04/23 01:04:57;;;;;;;28.03;15.60;;;12.70;99.90;;;;;;4984341;28;20459;-75
2023/04/23 01:07:25;;;;;;;30.80;16.33;;;12.80;99.90;;;;;;5012637;28;20405;-71
2023/04/23 01:09:55;;;;;;;32.37;16.40;;;12.80;99.90;;;;;;4990714;28;20461;-75
2023/04/23 01:12:24;;;;;;;40.47;16.37;;;12.90;99.90;;;;;;4983194;28;20444;-74
2023/04/23 01:14:52;;;;;;;23.40;14.60;;;12.80;99.90;;;;;;4984117;28;21184;-74
2023/04/23 01:17:31;;;;;;;27.20;16.23;;;12.80;99.90;;;;;;4970532;28;20451;-75
2023/04/23 01:19:58;;;;;;;30.37;15.80;;;12.70;99.90;;;;;;4987285;28;20448;-76
2023/04/23 01:22:27;;;;;;;32.20;16.07;;;12.50;99.90;;;;;;4989697;28;21167;-76
2023/04/23 01:24:59;;;;;;;30.47;17.30;;;12.50;99.90;;;;;;4966935;28;20994;-75
2023/04/23 01:27:26;;;;;;;31.33;17.37;;;12.60;99.90;;;;;;4989140;28;20465;-76
2023/04/23 01:30:02;;;;;;;35.97;16.57;;;12.60;99.90;;;;;;4988545;28;20450;-76
2023/04/23 01:32:29;;;;;;;30.40;16.10;;;12.50;99.90;;;;;;4985282;28;20579;-76
2023/04/23 01:34:59;;;;;;;33.00;17.87;;;12.50;99.90;;;;;;4985431;28;20474;-76
2023/04/23 01:37:32;;;;;;;29.90;15.47;;;12.40;99.90;;;;;;4986929;28;20440;-76
2023/04/23 01:39:59;;;;;;;34.83;14.67;;;12.50;99.90;;;;;;4983934;28;20475;-74
2023/04/23 01:42:31;;;;;;;24.67;15.47;;;12.40;99.90;;;;;;4986057;28;20473;-77
2023/04/23 01:45:01;;;;;;;27.00;16.53;;;12.40;99.90;;;;;;4995603;28;20443;-76
2023/04/23 01:47:30;;;;;;;29.43;17.50;;;12.30;99.90;;;;;;4992101;28;20470;-75
2023/04/23 01:49:58;;;;;;;29.37;15.80;;;12.50;99.90;;;;;;4998521;28;20470;-76
2023/04/23 01:52:35;;;;;;;32.50;15.60;;;12.50;99.90;;;;;;5000311;28;20474;-76
2023/04/23 01:55:02;;;;;;;36.60;18.03;;;12.50;99.90;;;;;;4983368;28;20500;-73
2023/04/23 01:57:31;;;;;;;39.93;18.40;;;12.50;99.90;;;;;;4980239;28;20922;-76
2023/04/23 02:00:07;;;;;;;34.83;17.57;;;12.50;99.90;;;;;;4939187;28;20447;-76
2023/04/23 02:02:56;;;;;;;33.67;18.67;;;12.50;99.90;;;;;;4987046;28;20481;-76
2023/04/23 02:05:48;;;;;;;;;;;;;;;;;;;;;
2023/04/23 02:08:46;;;;;;;30.97;18.37;;;12.60;99.90;;;;;;4986474;28;20477;-74
2023/04/23 02:13:57;;;;;;;39.57;19.90;;;12.40;99.90;;;;;;5046530;22;20524;-76
2023/04/23 02:16:28;;;;;;;26.70;15.63;;;12.20;99.90;;;;;;5023332;28;20491;-76
2023/04/23 02:18:55;;;;;;;33.47;17.00;;;12.30;99.90;;;;;;5021448;28;20579;-77
2023/04/23 02:21:23;;;;;;;39.80;18.40;;;12.40;99.90;;;;;;5023766;28;20541;-77
2023/04/23 02:23:59;;;;;;;35.43;18.07;;;12.30;99.90;;;;;;5019404;28;20553;-77
2023/04/23 02:26:29;;;;;;;33.37;15.93;;;12.30;99.90;;;;;;5024773;28;20502;-76
2023/04/23 02:28:56;;;;;;;37.20;20.30;;;12.40;99.90;;;;;;5014459;28;20457;-76
2023/04/23 02:31:30;;;;;;;38.30;16.00;;;12.30;99.90;;;;;;5012538;28;20751;-76
2023/04/23 02:34:01;;;;;;;29.73;17.57;;;12.20;99.90;;;;;;5018933;28;20549;-77
2023/04/23 02:36:29;;;;;;;33.77;15.83;;;12.20;99.90;;;;;;5020793;28;20507;-75
2023/04/23 02:39:08;;;;;;;33.13;16.47;;;12.20;99.90;;;;;;5020909;28;20845;-73
2023/04/23 02:41:48;;;;;;;34.40;16.50;;;12.10;99.90;;;;;;5015618;28;20463;-76
2023/04/23 02:44:24;;;;;;;38.33;15.37;;;12.00;99.90;;;;;;5013535;28;20480;-76
2023/04/23 02:47:15;;;;;;;26.27;14.30;;;11.90;99.90;;;;;;5015700;28;20490;-76
2023/04/23 02:50:04;;;;;;;;;;;;;;;;;;;;;
2023/04/23 02:52:36;;;;;;;30.47;16.40;;;11.90;99.90;;;;;;5010242;28;20885;-76
2023/04/23 02:55:09;;;;;;;32.33;16.83;;;11.90;99.90;;;;;;5035222;28;20563;-77
2023/04/23 02:57:57;;;;;;;29.60;16.80;;;11.90;99.90;;;;;;5022948;28;20948;-77
2023/04/23 03:03:37;;;;;;;26.13;15.67;;;11.90;99.90;;;;;;4941757;28;20525;-76
2023/04/23 03:06:06;;;;;;;33.17;16.03;;;11.90;99.90;;;;;;5023448;28;20995;-76
2023/04/23 03:08:34;;;;;;;29.90;15.33;;;11.90;99.90;;;;;;5018145;28;20473;-77
2023/04/23 03:11:03;;;;;;;32.10;14.83;;;11.90;99.90;;;;;;5025693;28;20485;-77
2023/04/23 03:14:02;;;;;;;33.57;14.03;;;11.90;99.90;;;;;;5014272;28;20455;-77
2023/04/23 03:16:31;;;;;;;30.50;15.60;;;11.70;99.90;;;;;;4972780;28;20485;-76
2023/04/23 03:19:01;;;;;;;31.17;15.90;;;11.50;99.90;;;;;;5014873;28;20532;-74
2023/04/23 03:21:36;;;;;;;39.80;17.17;;;11.40;99.90;;;;;;5031193;28;20484;-75
2023/04/23 03:24:10;;;;;;;26.03;15.10;;;11.40;99.90;;;;;;5020405;28;20458;-74
2023/04/23 03:26:50;;;;;;;29.83;14.50;;;11.40;99.90;;;;;;5017055;28;20440;-74
2023/04/23 03:29:23;;;;;;;27.83;12.03;;;11.50;99.90;;;;;;5024583;28;20840;-75
2023/04/23 03:31:58;;;;;;;33.37;16.70;;;11.60;99.90;;;;;;5016132;28;20566;-73
2023/04/23 03:34:25;;;;;;;28.33;14.27;;;11.50;99.90;;;;;;5014625;28;20548;-75
2023/04/23 03:36:52;;;;;;;24.50;13.47;;;11.50;99.90;;;;;;5026474;28;21001;-75
2023/04/23 03:43:05;;;;;;;37.67;13.37;;;11.50;99.90;;;;;;4936781;28;20498;-75
2023/04/23 03:45:40;;;;;;;22.23;12.37;;;11.50;99.90;;;;;;5013876;28;21023;-75
2023/04/23 03:48:07;;;;;;;24.40;14.77;;;11.60;99.90;;;;;;5023134;28;20510;-76
2023/04/23 03:50:43;;;;;;;27.43;15.53;;;11.50;99.90;;;;;;5001136;28;20555;-75
2023/04/23 03:53:13;;;;;;;24.67;13.63;;;11.40;99.90;;;;;;5008341;28;20502;-75
2023/04/23 03:55:42;;;;;;;28.70;14.90;;;11.40;99.90;;;;;;5016844;28;20527;-74
2023/04/23 03:58:11;;;;;;;27.23;13.50;;;11.40;99.90;;;;;;5020184;28;20867;-76
2023/04/23 04:00:46;;;;;;;22.23;11.87;;;11.50;99.90;;;;;;5016916;28;20435;-76
2023/04/23 04:03:18;;;;;;;30.43;13.70;;;11.50;99.90;;;;;;5014710;28;20812;-75
2023/04/23 04:05:45;;;;;;;28.20;13.67;;;11.40;99.90;;;;;;4969833;28;20522;-75
2023/04/23 04:08:12;;;;;;;28.20;13.37;;;11.30;99.90;;;;;;5012404;28;20439;-76
2023/04/23 04:10:44;;;;;;;27.23;15.27;;;11.30;99.90;;;;;;5017746;28;20547;-75
2023/04/23 04:13:24;;;;;;;26.87;15.07;;;11.20;99.90;;;;;;5012740;28;20477;-75
2023/04/23 04:15:51;;;;;;;23.13;12.70;;;11.30;99.90;;;;;;5007667;28;20485;-76
2023/04/23 04:18:18;;;;;;;24.17;13.70;;;11.30;99.90;;;;;;5011873;28;20464;-76
2023/04/23 04:20:52;;;;;;;23.27;13.40;;;11.30;99.90;;;;;;4993648;28;21037;-77
2023/04/23 04:23:20;;;;;;;23.57;14.67;;;11.20;99.90;;;;;;5013676;28;20494;-76
2023/04/23 04:25:55;;;;;;;28.00;13.40;;;11.20;99.90;;;;;;5023285;28;20739;-76
2023/04/23 04:28:58;;;;;;;32.53;16.27;;;11.10;99.90;;;;;;5016246;28;21227;-75
2023/04/23 04:31:27;;;;;;;24.00;13.37;;;11.20;99.90;;;;;;5018719;28;20428;-76
2023/04/23 04:33:54;;;;;;;25.13;13.53;;;11.20;99.90;;;;;;5014128;28;20534;-75
2023/04/23 04:36:52;;;;;;;29.17;15.20;;;11.30;99.90;;;;;;5011316;28;20503;-76
2023/04/23 04:39:19;;;;;;;23.53;14.27;;;11.30;99.90;;;;;;5018513;28;20580;-75
2023/04/23 04:42:06;;;;;;;27.93;13.77;;;11.30;99.90;;;;;;5018733;28;20431;-76
2023/04/23 04:44:36;;;;;;;28.97;13.73;;;11.30;99.90;;;;;;4983406;28;20472;-77
2023/04/23 04:50:16;;;;;;;25.07;12.47;;;11.30;99.90;;;;;;5015417;28;20693;-78
2023/04/23 04:52:43;;;;;;;21.13;10.63;;;11.20;99.90;;;;;;5034003;28;20492;-73
2023/04/23 04:55:10;;;;;;;22.50;13.07;;;11.20;99.90;;;;;;5023872;28;20960;-75
2023/04/23 04:57:37;;;;;;;19.37;11.53;;;11.30;99.90;;;;;;5026362;28;20451;-77
2023/04/23 05:00:21;;;;;;;23.97;12.10;;;11.30;99.90;;;;;;5024838;28;20457;-75
2023/04/23 05:06:01;;;;;;;24.87;12.23;;;11.40;99.90;;;;;;4991727;28;20474;-76
2023/04/23 05:08:35;;;;;;;21.83;10.73;;;11.40;99.90;;;;;;5016455;28;20439;-75
2023/04/23 05:14:03;;;;;;;24.47;11.10;;;11.30;99.90;;;;;;4997167;28;20477;-76
2023/04/23 05:17:02;;;;;;;20.00;14.00;;;11.40;99.90;;;;;;5018089;28;20477;-77
2023/04/23 05:26:11;;;;;;;24.60;13.57;;;11.90;99.90;;;;;;5013357;28;20442;-75
2023/04/23 05:36:38;;;;;;;;;;;;;;;;;;;;;
2023/04/23 05:39:47;;;;;;;15.80;10.20;;;13.10;99.90;;;;;;4958653;28;20855;-76
2023/04/23 05:50:02;;;;;;;13.73;10.43;;;14.80;99.90;;;;;;4893930;29;20480;-72
2023/04/23 05:57:09;;;;;;;12.07;9.30;;;15.40;99.90;;;;;;4865587;29;20496;-75
2023/04/23 06:00:31;;;;;;;13.47;8.33;;;15.70;99.90;;;;;;4869168;29;21295;-72
2023/04/23 06:10:41;;;;;;;12.40;6.67;;;16.50;99.90;;;;;;4787385;29;20479;-76
2023/04/23 06:42:32;;;;;;;6.57;5.53;;;16.10;99.90;;;;;;4894002;28;20476;-75
2023/04/23 06:45:39;;;;;;;8.03;5.83;;;15.90;99.90;;;;;;4869355;29;21101;-77
2023/04/23 06:48:12;;;;;;;8.80;5.07;;;15.80;99.90;;;;;;4936641;29;20490;-76
2023/04/23 06:54:58;;;;;;;7.90;5.57;;;16.00;99.90;;;;;;4936411;28;20468;-74
2023/04/23 06:57:54;;;;;;;6.60;4.33;;;16.10;99.90;;;;;;4936223;28;20491;-74
2023/04/23 07:00:25;;;;;;;7.30;5.30;;;16.00;99.90;;;;;;4942904;28;20468;-73
2023/04/23 07:03:10;;;;;;;9.90;5.27;;;15.70;99.90;;;;;;5028247;28;20482;-75
2023/04/23 07:05:40;;;;;;;5.93;4.73;;;15.50;99.90;;;;;;5015855;28;20972;-75
2023/04/23 07:08:13;;;;;;;6.03;4.13;;;15.30;99.90;;;;;;5016455;28;20488;-75
2023/04/23 07:10:42;;;;;;;10.50;4.70;;;15.30;99.90;;;;;;5020646;28;20607;-78
2023/04/23 07:13:18;;;;;;;6.40;4.10;;;15.30;99.90;;;;;;5024222;28;20480;-74
2023/04/23 07:16:23;;;;;;;;;;;;;;;;;;;;;
2023/04/23 07:19:31;;;;;;;8.00;5.60;;;15.40;99.90;;;;;;4997617;28;20462;-76
2023/04/23 07:23:02;;;;;;;12.30;4.40;;;15.80;99.90;;;;;;5009291;28;20462;-74
2023/04/23 07:26:07;;;;;;;5.00;4.00;;;15.70;99.90;;;;;;4925139;29;20469;-76
2023/04/23 07:33:15;;;;;;;;;;;;;;;;;;;;;
2023/04/23 07:43:18;;;;;;;;;;;;;;;;;;;;;
2023/04/23 07:45:47;;;;;;;4.93;3.87;;;16.50;99.90;;;;;;4773372;29;20487;-75
2023/04/23 07:49:00;;;;;;;;;;;;;;;;;;;;;
2023/04/23 07:54:45;;;;;;;3.73;3.30;;;17.50;99.90;;;;;;4814648;29;20911;-75
2023/04/23 07:57:34;;;;;;;5.27;3.50;;;18.30;99.90;;;;;;4809306;29;20999;-75
2023/04/23 08:07:58;;;;;;;5.07;2.97;;;20.30;99.90;;;;;;4792910;29;20486;-74
2023/04/23 08:10:55;;;;;;;5.87;3.90;;;20.60;99.90;;;;;;4831382;29;20642;-76
2023/04/23 08:24:06;;;;;;;3.23;2.93;;;22.30;99.90;;;;;;4795543;29;20493;-75
2023/04/23 08:26:40;;;;;;;4.80;2.73;;;21.90;99.90;;;;;;4867129;29;20488;-76
2023/04/23 08:39:34;;;;;;;;;;;;;;;;;;;;;
2023/04/23 08:53:16;;;;;;;5.80;2.90;;;24.40;99.90;;;;;;4730654;30;20588;-77
2023/04/23 08:55:59;;;;;;;2.23;2.03;;;23.30;99.90;;;;;;4756856;29;20563;-76
2023/04/23 08:58:27;;;;;;;17.80;2.97;;;23.60;99.90;;;;;;4848851;29;21342;-76
2023/04/23 09:01:00;;;;;;;2.70;2.23;;;23.60;99.90;;;;;;4854493;29;20475;-76
2023/04/23 09:03:29;;;;;;;4.90;2.70;;;23.80;99.90;;;;;;4852547;29;20538;-76
2023/04/23 09:06:17;;;;;;;5.50;3.07;;;24.20;99.90;;;;;;4856094;29;20500;-75
2023/04/23 09:11:47;;;;;;;4.40;3.00;;;23.10;99.90;;;;;;4845405;29;20470;-76
2023/04/23 09:14:14;;;;;;;3.00;2.67;;;21.70;99.90;;;;;;4871973;29;20514;-76
2023/04/23 09:17:06;;;;;;;4.97;3.20;;;20.30;99.90;;;;;;4911053;28;20501;-76
2023/04/23 09:20:09;;;;;;;2.77;2.57;;;20.50;99.90;;;;;;4947514;28;20464;-77
2023/04/23 09:30:03;;;;;;;5.20;2.60;;;20.80;99.90;;;;;;4940520;28;20464;-74
2023/04/23 09:43:03;;;;;;;2.63;2.43;;;22.50;99.90;;;;;;5008965;28;20482;-77
2023/04/23 09:52:30;;;;;;;2.90;1.87;;;25.60;99.90;;;;;;4971236;28;20512;-75
2023/04/23 09:54:58;;;;;;;5.40;1.67;;;25.90;99.40;;;;;;4946741;28;20473;-76
2023/04/23 10:03:59;;;;;;;4.30;2.30;;;22.80;99.90;;;;;;4964136;28;20503;-73
2023/04/23 10:09:46;;;;;;;4.93;2.33;;;23.40;99.90;;;;;;4962521;28;20533;-74
2023/04/23 10:12:16;;;;;;;3.40;1.50;;;23.20;99.90;;;;;;5013910;28;20499;-75
2023/04/23 10:14:53;;;;;;;1.87;1.67;;;21.80;99.90;;;;;;5012721;28;20481;-75
2023/04/23 10:17:29;;;;;;;1.80;1.53;;;21.10;99.90;;;;;;5013829;28;20513;-74
2023/04/23 10:19:57;;;;;;;3.00;1.60;;;20.40;99.90;;;;;;5010548;28;20465;-74
2023/04/23 10:22:29;;;;;;;2.20;2.00;;;20.10;99.90;;;;;;5005680;28;20540;-74
2023/04/23 10:25:00;;;;;;;2.70;1.90;;;19.90;99.90;;;;;;5013767;28;20472;-75
2023/04/23 10:27:29;;;;;;;10.60;2.70;;;19.90;99.90;;;;;;5014454;28;20465;-75
2023/04/23 10:29:57;;;;;;;3.50;2.33;;;20.00;99.90;;;;;;5017816;28;20488;-75
2023/04/23 10:32:45;;;;;;;2.60;1.93;;;20.30;99.90;;;;;;5015785;28;20468;-75
2023/04/23 10:35:44;;;;;;;5.53;2.20;;;20.90;99.90;;;;;;5025401;28;20491;-76
2023/04/23 10:38:19;;;;;;;4.93;1.87;;;22.40;99.90;;;;;;5005651;28;20480;-74
2023/04/23 10:40:55;;;;;;;1.70;1.43;;;23.10;99.90;;;;;;5006366;28;20578;-75
2023/04/23 10:43:24;;;;;;;4.13;1.70;;;22.40;99.90;;;;;;5014169;28;20562;-74
2023/04/23 10:45:54;;;;;;;1.70;1.50;;;21.60;99.90;;;;;;5022404;28;20538;-74
2023/04/23 10:48:22;;;;;;;3.10;2.03;;;21.20;99.90;;;;;;5024069;28;20513;-74
2023/04/23 10:50:58;;;;;;;2.90;1.63;;;20.80;99.90;;;;;;5015451;28;20468;-75
2023/04/23 10:53:26;;;;;;;1.90;1.70;;;20.80;99.90;;;;;;5022279;28;20511;-74
2023/04/23 10:56:08;;;;;;;2.23;2.03;;;21.10;99.90;;;;;;5022905;28;20452;-74
2023/04/23 10:58:51;;;;;;;2.10;1.70;;;21.10;99.90;;;;;;5011623;28;20472;-77
2023/04/23 11:01:19;;;;;;;4.37;2.10;;;21.50;99.90;;;;;;5023290;28;20451;-74
2023/04/23 11:03:53;;;;;;;2.70;2.00;;;22.10;99.90;;;;;;5021673;28;20568;-75
2023/04/23 11:06:42;;;;;;;3.80;2.30;;;22.70;99.90;;;;;;5025955;28;20955;-76
2023/04/23 11:09:30;;;;;;;4.33;1.83;;;22.90;99.90;;;;;;5025858;28;20933;-75
2023/04/23 11:12:00;;;;;;;5.00;2.20;;;23.50;99.90;;;;;;5032823;28;20867;-74
2023/04/23 11:15:09;;;;;;;3.00;2.17;;;24.00;99.00;;;;;;5021681;28;20468;-75
2023/04/23 11:18:43;;;;;;;2.60;2.40;;;24.30;98.10;;;;;;5006257;28;21839;-76
2023/04/23 11:21:52;;;;;;;2.00;1.70;;;23.80;97.90;;;;;;5015046;28;20488;-76
2023/04/23 11:24:29;;;;;;;1.80;1.67;;;23.40;96.70;;;;;;5024529;28;20477;-76
2023/04/23 11:27:01;;;;;;;2.03;1.80;;;22.50;97.90;;;;;;5029618;28;20475;-75
2023/04/23 11:29:49;;;;;;;3.43;2.07;;;21.90;98.80;;;;;;5023934;28;20459;-74
2023/04/23 11:32:24;;;;;;;2.70;2.07;;;21.40;99.50;;;;;;5034482;28;20479;-71
2023/04/23 11:35:04;;;;;;;5.17;3.60;;;21.20;99.90;;;;;;5029389;28;20452;-75
2023/04/23 11:37:56;;;;;;;2.60;2.33;;;21.00;99.90;;;;;;5019291;28;20485;-76
2023/04/23 11:41:04;;;;;;;2.40;2.10;;;20.80;99.90;;;;;;5020602;28;20464;-76
2023/04/23 11:43:59;;;;;;;2.10;1.90;;;20.60;99.90;;;;;;4979280;28;20567;-75
2023/04/23 11:46:30;;;;;;;2.67;1.70;;;20.90;99.90;;;;;;5023366;28;20857;-75
2023/04/23 11:52:12;;;;;;;2.73;2.00;;;20.80;99.90;;;;;;5018237;28;20468;-75
2023/04/23 11:58:50;;;;;;;1.50;1.40;;;22.70;99.90;;;;;;4970412;28;20952;-76
2023/04/23 12:12:06;;;;;;;1.93;1.50;;;20.30;98.40;;;;;;4903722;29;20459;-76
2023/04/23 12:14:40;;;;;;;1.70;1.33;;;19.80;99.90;;;;;;4922426;29;20884;-75
2023/04/23 12:17:11;;;;;;;2.30;1.43;;;19.30;99.90;;;;;;4928721;29;21027;-75
2023/04/23 12:19:42;;;;;;;2.00;1.80;;;18.80;99.90;;;;;;4929414;29;20476;-75
2023/04/23 12:22:11;;;;;;;1.57;1.43;;;18.90;99.90;;;;;;4953029;28;20719;-74
2023/04/23 12:24:47;;;;;;;2.83;1.63;;;19.00;99.90;;;;;;4966132;28;20492;-75
2023/04/23 12:27:19;;;;;;;2.03;1.40;;;19.10;99.90;;;;;;4978601;28;20485;-74
2023/04/23 12:29:46;;;;;;;2.60;1.80;;;19.00;99.90;;;;;;4980921;28;20450;-75
2023/04/23 12:32:15;;;;;;;1.50;1.30;;;19.10;99.90;;;;;;4956598;28;21292;-75
2023/04/23 12:34:52;;;;;;;3.30;1.67;;;19.30;99.90;;;;;;4971316;28;20498;-75
2023/04/23 12:37:25;;;;;;;3.27;1.60;;;18.90;99.90;;;;;;5026586;28;20487;-75
2023/04/23 12:39:55;;;;;;;1.97;1.77;;;19.20;99.90;;;;;;5016693;28;21236;-75
2023/04/23 12:42:25;;;;;;;2.53;1.30;;;19.30;99.90;;;;;;5028390;28;20922;-75
2023/04/23 12:50:38;;;;;;;1.33;1.23;;;22.80;99.90;;;;;;5011893;28;20997;-75
2023/04/23 12:53:16;;;;;;;1.80;1.70;;;23.50;99.90;;;;;;5026592;28;20479;-76
2023/04/23 12:56:19;;;;;;;4.80;1.70;;;23.50;99.90;;;;;;5015961;28;20457;-74
2023/04/23 12:58:51;;;;;;;4.27;2.50;;;23.30;99.90;;;;;;5021391;28;20481;-75
2023/04/23 13:01:50;;;;;;;3.30;2.10;;;23.70;99.40;;;;;;5021810;28;20975;-76
2023/04/23 13:08:07;;;;;;;3.07;1.70;;;23.80;99.50;;;;;;4973475;28;20457;-75
2023/04/23 13:17:43;;;;;;;1.90;1.50;;;23.20;99.40;;;;;;5034092;28;20460;-75
2023/04/23 13:23:29;;;;;;;1.70;1.60;;;23.00;96.60;;;;;;5001512;28;20484;-75
2023/04/23 13:25:57;;;;;;;4.23;1.90;;;23.10;96.40;;;;;;5028034;28;20504;-75
2023/04/23 13:28:39;;;;;;;4.00;1.70;;;22.80;97.20;;;;;;5034590;28;20820;-75
2023/04/23 13:31:10;;;;;;;1.30;1.13;;;22.90;96.80;;;;;;5023338;28;20464;-76
2023/04/23 13:33:38;;;;;;;2.50;1.63;;;23.00;97.60;;;;;;5026665;28;20579;-76
2023/04/23 13:36:07;;;;;;;1.80;1.40;;;23.10;96.10;;;;;;5025494;28;20479;-76
2023/04/23 13:38:35;;;;;;;3.77;1.50;;;23.00;96.20;;;;;;5019804;28;20487;-74
2023/04/23 13:41:04;;;;;;;1.77;1.43;;;23.40;96.10;;;;;;5031272;28;20468;-75
2023/04/23 13:43:33;;;;;;;1.30;1.10;;;24.30;93.10;;;;;;5031279;28;20831;-74
2023/04/23 13:46:06;;;;;;;1.90;1.10;;;23.80;91.90;;;;;;5018009;28;20472;-74
2023/04/23 13:48:37;;;;;;;4.13;1.53;;;23.00;89.70;;;;;;5003927;28;20484;-76
2023/04/23 13:51:07;;;;;;;2.23;1.10;;;23.00;90.50;;;;;;5020517;28;20472;-75
2023/04/23 13:53:37;;;;;;;1.50;1.00;;;22.80;88.70;;;;;;4999605;28;20468;-76
2023/04/23 13:56:09;;;;;;;9.80;1.87;;;22.30;90.40;;;;;;5025053;28;20456;-76
2023/04/23 13:58:41;;;;;;;2.77;1.03;;;22.00;89.60;;;;;;5025528;28;21055;-76
2023/04/23 14:01:14;;;;;;;3.07;1.40;;;22.00;87.70;;;;;;5004605;28;20461;-74
2023/04/23 14:03:44;;;;;;;5.07;1.50;;;22.40;88.40;;;;;;5031063;28;21020;-75
2023/04/23 14:06:20;;;;;;;1.57;1.20;;;22.70;88.30;;;;;;4976854;28;21003;-75
2023/04/23 14:09:36;;;;;;;;;;;;;;;;;;;;;
2023/04/23 14:12:42;;;;;;;3.37;1.20;;;23.20;89.20;;;;;;5025430;28;20846;-74
2023/04/23 14:16:00;;;;;;;;;;;;;;;;;;;;;
2023/04/23 14:21:11;;;;;;;1.20;0.90;;;21.80;91.00;;;;;;5025568;28;20440;-76
2023/04/23 14:23:51;;;;;;;1.80;1.07;;;21.40;88.30;;;;;;5003784;28;20690;-77
2023/04/23 14:26:41;;;;;;;1.50;1.03;;;21.30;89.00;;;;;;5013032;28;20472;-76
2023/04/23 14:29:23;;;;;;;1.73;1.00;;;21.70;86.60;;;;;;5027276;28;20472;-76
2023/04/23 14:31:53;;;;;;;1.30;1.00;;;21.40;86.80;;;;;;5028941;28;20445;-75
2023/04/23 14:34:23;;;;;;;2.37;1.00;;;21.20;86.20;;;;;;5026269;28;20488;-75
2023/04/23 14:36:51;;;;;;;1.63;1.20;;;21.20;85.40;;;;;;5026928;28;20538;-74
2023/04/23 14:39:20;;;;;;;1.63;1.20;;;21.10;85.70;;;;;;5007540;28;21601;-74
2023/04/23 14:41:47;;;;;;;1.50;0.90;;;20.90;86.40;;;;;;5016424;28;21156;-75
2023/04/23 14:44:16;;;;;;;2.30;2.10;;;20.60;84.30;;;;;;5022972;28;20552;-75
2023/04/23 14:46:48;;;;;;;2.43;1.10;;;20.50;87.30;;;;;;5028845;28;20441;-75
2023/04/23 14:49:17;;;;;;;2.23;1.07;;;20.60;86.80;;;;;;5021247;28;20460;-75
2023/04/23 14:51:46;;;;;;;2.70;1.10;;;20.70;86.20;;;;;;5014328;28;20459;-76
2023/04/23 14:54:17;;;;;;;1.30;0.97;;;20.80;87.20;;;;;;5020222;28;20480;-74
2023/04/23 14:56:47;;;;;;;2.80;1.20;;;20.90;86.60;;;;;;5023715;28;20970;-75
2023/04/23 14:59:20;;;;;;;3.17;1.10;;;20.90;88.50;;;;;;5009687;28;20472;-75
2023/04/23 15:01:59;;;;;;;1.27;1.10;;;21.00;86.90;;;;;;5022337;28;20965;-74
2023/04/23 15:04:27;;;;;;;1.20;0.90;;;21.00;87.10;;;;;;5021712;28;20475;-76
2023/04/23 15:07:00;;;;;;;1.83;1.10;;;20.90;87.00;;;;;;5021917;28;20526;-75
2023/04/23 15:09:27;;;;;;;1.20;1.00;;;20.90;88.90;;;;;;5015642;28;20535;-75
2023/04/23 15:11:55;;;;;;;1.37;0.90;;;20.90;89.50;;;;;;4967351;28;20548;-75
2023/04/23 15:14:31;;;;;;;1.20;0.90;;;21.00;88.80;;;;;;5021555;28;20526;-74
2023/04/23 15:17:02;;;;;;;3.70;1.13;;;20.70;86.80;;;;;;5027213;28;20460;-77
2023/04/23 15:19:30;;;;;;;5.93;1.23;;;20.30;87.40;;;;;;5019820;28;20485;-75
2023/04/23 15:21:57;;;;;;;1.20;0.73;;;20.20;87.80;;;;;;5023113;28;20539;-75
2023/04/23 15:24:25;;;;;;;1.57;1.20;;;20.20;88.00;;;;;;5035465;28;20483;-74
2023/04/23 15:26:53;;;;;;;1.57;1.10;;;20.00;88.20;;;;;;5017247;28;20473;-74
2023/04/23 15:29:23;;;;;;;1.60;1.20;;;19.80;89.70;;;;;;5018263;28;20481;-75
2023/04/23 15:31:56;;;;;;;2.40;1.17;;;20.00;90.30;;;;;;5026806;28;20468;-75
2023/04/23 15:34:24;;;;;;;1.20;1.00;;;19.90;90.40;;;;;;5029756;28;20526;-75
2023/04/23 15:36:51;;;;;;;6.50;1.63;;;19.90;90.70;;;;;;5016223;28;20995;-75
2023/04/23 15:39:21;;;;;;;1.50;0.90;;;19.70;90.50;;;;;;5024882;28;20495;-74
2023/04/23 15:41:48;;;;;;;1.60;1.10;;;19.50;90.90;;;;;;5027116;28;20498;-74
2023/04/23 15:44:17;;;;;;;3.53;1.30;;;19.30;91.60;;;;;;5016956;28;20490;-75
2023/04/23 15:46:45;;;;;;;1.70;1.20;;;19.30;91.90;;;;;;4997268;28;20539;-74
2023/04/23 15:49:14;;;;;;;2.37;1.47;;;19.30;92.30;;;;;;5026203;28;20452;-75
2023/04/23 15:51:42;;;;;;;3.47;1.00;;;19.00;93.40;;;;;;5026202;28;20457;-75
2023/04/23 15:54:12;;;;;;;3.00;1.30;;;18.90;94.40;;;;;;5016724;28;20987;-76
2023/04/23 15:56:39;;;;;;;1.20;0.80;;;18.80;95.60;;;;;;5027161;28;20445;-75
2023/04/23 15:59:07;;;;;;;1.60;1.00;;;18.60;96.90;;;;;;5027708;28;20484;-74
2023/04/23 16:01:35;;;;;;;1.30;1.10;;;18.40;97.50;;;;;;5018629;28;20457;-75
2023/04/23 16:04:03;;;;;;;2.50;1.10;;;18.20;98.60;;;;;;5017616;28;20503;-75
2023/04/23 16:06:32;;;;;;;4.13;1.37;;;18.20;99.40;;;;;;5037293;28;20459;-75
2023/04/23 16:09:00;;;;;;;4.00;1.53;;;18.20;99.90;;;;;;5038326;28;20469;-75
2023/04/23 16:11:27;;;;;;;3.27;2.07;;;18.20;99.90;;;;;;5017165;28;20488;-75
2023/04/23 16:13:55;;;;;;;2.40;1.10;;;18.20;98.80;;;;;;4993689;28;20472;-74
2023/04/23 16:16:26;;;;;;;1.90;1.07;;;18.10;96.40;;;;;;4994094;28;20565;-75
2023/04/23 16:18:55;;;;;;;1.33;1.00;;;17.70;96.90;;;;;;5031911;28;20484;-75
2023/04/23 16:21:23;;;;;;;3.07;1.40;;;17.70;98.10;;;;;;5028300;28;20452;-75
2023/04/23 16:23:52;;;;;;;1.93;1.73;;;17.80;99.90;;;;;;5031759;28;20600;-72
2023/04/23 16:26:20;;;;;;;1.53;1.13;;;17.50;99.90;;;;;;5018804;28;20472;-75
2023/04/23 16:28:48;;;;;;;2.43;1.13;;;17.50;99.90;;;;;;5022708;28;20449;-75
2023/04/23 16:31:15;;;;;;;2.10;1.60;;;17.60;99.90;;;;;;5018733;28;20981;-76
2023/04/23 16:33:42;;;;;;;1.40;1.10;;;17.50;99.90;;;;;;5028659;28;20536;-76
2023/04/23 16:36:11;;;;;;;1.97;1.40;;;17.50;99.90;;;;;;5030056;28;20846;-75
2023/04/23 16:38:40;;;;;;;1.80;1.40;;;17.50;99.90;;;;;;5028852;28;20851;-75
2023/04/23 16:41:09;;;;;;;1.50;1.30;;;17.50;99.90;;;;;;5030540;28;20452;-75
2023/04/23 16:43:37;;;;;;;6.30;1.13;;;17.60;99.60;;;;;;5027621;28;20915;-74
2023/04/23 16:46:05;;;;;;;3.80;1.70;;;17.70;99.20;;;;;;5028360;28;20590;-75
2023/04/23 16:48:42;;;;;;;1.50;1.00;;;17.70;99.90;;;;;;5025143;28;20523;-76
2023/04/23 16:51:11;;;;;;;2.57;1.67;;;17.60;99.60;;;;;;4985632;28;20523;-75
2023/04/23 16:53:41;;;;;;;2.17;1.40;;;17.50;99.80;;;;;;5031998;28;20464;-75
2023/04/23 16:56:09;;;;;;;2.27;1.10;;;17.40;99.90;;;;;;5031512;28;20861;-75
2023/04/23 16:58:36;;;;;;;1.50;1.20;;;17.40;99.90;;;;;;5027201;28;21016;-76
2023/04/23 17:01:06;;;;;;;1.80;1.63;;;17.50;99.90;;;;;;5026391;28;20486;-74
2023/04/23 17:03:35;;;;;;;1.47;1.07;;;17.30;99.90;;;;;;5024559;28;20547;-75
2023/04/23 17:06:10;;;;;;;2.43;1.80;;;17.10;99.90;;;;;;5022822;28;20845;-75
2023/04/23 17:08:37;;;;;;;1.90;1.40;;;16.90;99.90;;;;;;5028972;28;20510;-75
2023/04/23 17:11:06;;;;;;;2.60;2.07;;;16.90;99.90;;;;;;4996897;28;20445;-75
2023/04/23 17:13:47;;;;;;;5.10;1.50;;;16.90;99.90;;;;;;5006273;28;20515;-75
2023/04/23 17:16:14;;;;;;;1.63;1.50;;;16.90;99.90;;;;;;5036425;28;20488;-75
2023/04/23 17:18:42;;;;;;;1.70;1.53;;;16.90;99.90;;;;;;5020238;28;20469;-75
2023/04/23 17:21:14;;;;;;;1.63;1.43;;;17.00;99.90;;;;;;5032206;28;20527;-76